createdAt,value
2023-01-22T00:00:23.437Z,390.37681
2023-01-22T00:05:25.360Z,396.94118
2023-01-22T00:10:27.025Z,384
2023-01-22T00:15:28.727Z,396.94118
2023-01-22T00:20:30.465Z,368.82759
2023-01-22T00:25:32.154Z,341.41935
2023-01-22T00:30:33.778Z,341.41935
2023-01-22T00:35:35.404Z,341.41935
2023-01-22T00:40:37.134Z,326.6087
2023-01-22T00:45:38.857Z,321.91411
2023-01-22T00:50:40.505Z,273.41176
2023-01-22T00:55:42.180Z,296
2023-01-22T01:00:43.843Z,286.22222
2023-01-22T01:05:45.515Z,292.0226
2023-01-22T01:10:47.164Z,280.61202
2023-01-22T01:15:48.818Z,284.33149
2023-01-22T01:20:50.631Z,280.61202
2023-01-22T01:25:52.263Z,306.35294
2023-01-22T01:30:53.992Z,296
2023-01-22T01:35:55.683Z,278.78261
2023-01-22T01:40:57.280Z,268.21053
2023-01-22T01:45:58.915Z,282.46154
2023-01-22T01:51:00.567Z,298.02299
2023-01-22T01:56:02.449Z,288.13408
2023-01-22T02:01:04.152Z,321.91411
2023-01-22T02:06:05.840Z,306.35294
2023-01-22T02:11:07.473Z,319.60976
2023-01-22T02:16:09.223Z,333.87342
2023-01-22T02:21:10.894Z,344
2023-01-22T02:26:12.597Z,341.41935
2023-01-22T02:31:14.548Z,336.35669
2023-01-22T02:36:16.287Z,333.87342
2023-01-22T02:41:17.906Z,329
2023-01-22T02:46:19.525Z,333.87342
2023-01-22T02:51:21.274Z,349.26316
2023-01-22T02:56:23.127Z,333.87342
2023-01-22T03:01:24.866Z,338.87179
2023-01-22T03:06:26.707Z,338.87179
2023-01-22T03:11:28.439Z,326.6087
2023-01-22T03:16:30.105Z,302.13953
2023-01-22T03:21:32.109Z,357.42282
2023-01-22T03:26:34.045Z,357.42282
2023-01-22T03:31:35.741Z,317.33333
2023-01-22T03:36:37.450Z,319.60976
2023-01-22T03:41:39.151Z,333.87342
2023-01-22T03:46:40.995Z,344
2023-01-22T03:51:42.649Z,336.35669
2023-01-22T03:56:44.303Z,317.33333
2023-01-22T04:01:45.950Z,336.35669
2023-01-22T04:06:47.585Z,324.24691
2023-01-22T04:11:49.234Z,315.08434
2023-01-22T04:16:50.871Z,319.60976
2023-01-22T04:21:52.663Z,319.60976
2023-01-22T04:26:54.275Z,308.49704
2023-01-22T04:31:55.868Z,315.08434
2023-01-22T04:36:57.521Z,317.33333
2023-01-22T04:41:59.144Z,310.66667
2023-01-22T04:47:01.035Z,317.33333
2023-01-22T04:52:02.664Z,306.35294
2023-01-22T04:57:04.377Z,304.23392
2023-01-22T05:02:06.067Z,294
2023-01-22T05:07:07.763Z,312.86228
2023-01-22T05:12:09.446Z,329
2023-01-22T05:17:11.073Z,329
2023-01-22T05:22:12.705Z,306.35294
2023-01-22T05:27:14.351Z,292.0226
2023-01-22T05:32:16.014Z,319.60976
2023-01-22T05:37:17.720Z,321.91411
2023-01-22T05:42:19.397Z,333.87342
2023-01-22T05:47:21.016Z,319.60976
2023-01-22T05:52:22.650Z,336.35669
2023-01-22T05:57:24.421Z,333.87342
2023-01-22T06:02:26.076Z,351.94702
2023-01-22T06:07:27.921Z,344
2023-01-22T06:12:29.581Z,329
2023-01-22T06:17:31.182Z,336.35669
2023-01-22T06:22:32.799Z,324.24691
2023-01-22T06:27:34.601Z,317.33333
2023-01-22T06:32:36.340Z,312.86228
2023-01-22T06:37:37.955Z,306.35294
2023-01-22T06:42:39.773Z,324.24691
2023-01-22T06:47:41.411Z,321.91411
2023-01-22T06:52:43.046Z,331.42138
2023-01-22T06:57:44.817Z,298.02299
2023-01-22T07:02:46.576Z,292.0226
2023-01-22T07:07:48.196Z,294
2023-01-22T07:12:49.774Z,286.22222
2023-01-22T07:17:51.448Z,300.06936
2023-01-22T07:22:53.077Z,286.22222
2023-01-22T07:27:54.754Z,288.13408
2023-01-22T07:32:56.352Z,298.02299
2023-01-22T07:37:58.093Z,288.13408
2023-01-22T07:42:59.678Z,284.33149
2023-01-22T07:48:01.588Z,292.0226
2023-01-22T07:53:03.208Z,292.0226
2023-01-22T07:58:04.859Z,290.06742
2023-01-22T08:03:06.463Z,284.33149
2023-01-22T08:08:08.089Z,288.13408
2023-01-22T08:13:09.702Z,286.22222
2023-01-22T08:18:11.389Z,286.22222
2023-01-22T08:23:13.133Z,292.0226
2023-01-22T08:28:14.782Z,282.46154
2023-01-22T08:33:16.435Z,288.13408
2023-01-22T08:38:18.236Z,294
2023-01-22T08:43:19.958Z,298.02299
2023-01-22T08:48:26.633Z,286.22222
2023-01-22T08:53:28.214Z,276.97297
2023-01-22T08:58:29.815Z,269.92593
2023-01-22T09:03:31.407Z,271.65957
2023-01-22T09:08:33.003Z,284.33149
2023-01-22T09:13:34.692Z,276.97297
2023-01-22T09:18:36.383Z,280.61202
2023-01-22T09:23:38.250Z,278.78261
2023-01-22T09:28:39.851Z,276.97297
2023-01-22T09:33:41.468Z,286.22222
2023-01-22T09:38:43.229Z,278.78261
2023-01-22T09:43:44.927Z,286.22222
2023-01-22T09:48:46.533Z,296
2023-01-22T09:53:48.175Z,300.06936
2023-01-22T09:58:49.857Z,292.0226
2023-01-22T10:03:51.604Z,288.13408
2023-01-22T10:08:53.225Z,292.0226
2023-01-22T10:13:54.852Z,282.46154
2023-01-22T10:18:56.958Z,278.78261
2023-01-22T10:23:58.775Z,290.06742
2023-01-22T10:29:00.512Z,284.33149
2023-01-22T10:34:02.153Z,280.61202
2023-01-22T10:39:03.779Z,282.46154
2023-01-22T10:44:05.504Z,258.28571
2023-01-22T10:49:07.148Z,271.65957
2023-01-22T10:54:08.783Z,275.1828
2023-01-22T10:59:10.467Z,280.61202
2023-01-22T11:04:12.090Z,288.13408
2023-01-22T11:09:13.832Z,288.13408
2023-01-22T11:14:15.415Z,292.0226
2023-01-22T11:19:23.835Z,271.65957
2023-01-22T11:24:30.994Z,271.65957
2023-01-22T11:29:32.636Z,271.65957
2023-01-22T11:34:34.289Z,278.78261
2023-01-22T11:39:36.119Z,284.33149
2023-01-22T11:44:37.752Z,284.33149
2023-01-22T11:49:39.466Z,286.22222
2023-01-22T11:54:41.113Z,278.78261
2023-01-22T11:59:42.699Z,284.33149
2023-01-22T12:04:44.522Z,273.41176
2023-01-22T12:09:46.212Z,271.65957
2023-01-22T12:14:47.801Z,275.1828
2023-01-22T12:19:49.447Z,275.1828
2023-01-22T12:24:51.135Z,271.65957
2023-01-22T12:29:52.829Z,258.28571
2023-01-22T12:34:54.583Z,273.41176
2023-01-22T12:39:56.232Z,268.21053
2023-01-22T12:44:57.871Z,261.52577
2023-01-22T12:49:59.484Z,252
2023-01-22T12:55:01.378Z,252
2023-01-22T13:00:03.179Z,245.96078
2023-01-22T13:05:04.996Z,275.1828
2023-01-22T13:10:06.691Z,271.65957
2023-01-22T13:15:08.319Z,259.89744
2023-01-22T13:20:10.007Z,264.83333
2023-01-22T13:25:11.621Z,273.41176
2023-01-22T13:30:13.367Z,278.78261
2023-01-22T13:35:15.080Z,261.52577
2023-01-22T13:40:17.075Z,247.44828
2023-01-22T13:45:18.886Z,264.83333
2023-01-22T13:50:20.789Z,263.17098
2023-01-22T13:55:22.613Z,250.46766
2023-01-22T14:00:24.338Z,253.54774
2023-01-22T14:05:26.003Z,253.54774
2023-01-22T14:10:27.608Z,248.9505
2023-01-22T14:15:29.183Z,241.58454
2023-01-22T14:20:31.025Z,245.96078
2023-01-22T14:25:32.651Z,247.44828
2023-01-22T14:30:34.362Z,282.46154
2023-01-22T14:35:36.085Z,266.51309
2023-01-22T14:40:37.912Z,263.17098
2023-01-22T14:45:39.724Z,261.52577
2023-01-22T14:50:41.482Z,268.21053
2023-01-22T14:55:43.359Z,275.1828
2023-01-22T15:00:45.073Z,271.65957
2023-01-22T15:05:46.706Z,268.21053
2023-01-22T15:10:48.300Z,256.69036
2023-01-22T15:15:50.016Z,255.11111
2023-01-22T15:20:51.667Z,256.69036
2023-01-22T15:25:53.266Z,247.44828
2023-01-22T15:30:54.904Z,256.69036
2023-01-22T15:35:56.530Z,266.51309
2023-01-22T15:40:58.201Z,261.52577
2023-01-22T15:45:59.868Z,256.69036
2023-01-22T15:51:01.625Z,268.21053
2023-01-22T15:56:03.374Z,252
2023-01-22T16:01:05.156Z,247.44828
2023-01-22T16:06:06.785Z,244.4878
2023-01-22T16:11:08.318Z,252
2023-01-22T16:16:09.908Z,253.54774
2023-01-22T16:21:11.634Z,248.9505
2023-01-22T16:26:13.480Z,244.4878
2023-01-22T16:31:15.138Z,238.73684
2023-01-22T16:36:16.902Z,241.58454
2023-01-22T16:41:24.444Z,248.9505
2023-01-22T16:46:26.931Z,255.11111
2023-01-22T16:51:28.631Z,252
2023-01-22T16:56:30.557Z,250.46766
2023-01-22T17:01:32.190Z,263.17098
2023-01-22T17:06:33.911Z,271.65957
2023-01-22T17:11:35.902Z,264.83333
2023-01-22T17:16:37.594Z,273.41176
2023-01-22T17:21:39.423Z,278.78261
2023-01-22T17:26:41.018Z,275.1828
2023-01-22T17:31:42.857Z,280.61202
2023-01-22T17:36:44.553Z,275.1828
2023-01-22T17:41:46.183Z,263.17098
2023-01-22T17:46:47.800Z,280.61202
2023-01-22T17:51:49.648Z,266.51309
2023-01-22T17:56:51.466Z,263.17098
2023-01-22T18:01:53.129Z,284.33149
2023-01-22T18:06:54.808Z,280.61202
2023-01-22T18:11:57.508Z,271.65957
2023-01-22T18:16:59.118Z,280.61202
2023-01-22T18:22:00.781Z,269.92593
2023-01-22T18:27:02.424Z,294
2023-01-22T18:32:04.078Z,292.0226
2023-01-22T18:37:05.915Z,294
2023-01-22T18:42:07.600Z,286.22222
2023-01-22T18:47:09.205Z,290.06742
2023-01-22T18:52:10.822Z,336.35669
2023-01-22T18:57:12.553Z,0
2023-01-22T19:02:14.199Z,312.86228
2023-01-22T19:07:15.849Z,324.24691
2023-01-22T19:12:17.537Z,351.94702
2023-01-22T19:17:19.187Z,344
2023-01-22T19:22:20.851Z,357.42282
2023-01-22T19:27:22.605Z,363.04762
2023-01-22T19:32:24.272Z,360.21622
2023-01-22T19:37:25.935Z,0
2023-01-22T19:42:27.546Z,0
2023-01-22T19:47:29.216Z,0
2023-01-22T19:52:30.890Z,0
2023-01-22T19:57:32.524Z,0
2023-01-22T20:02:34.215Z,0
2023-01-22T20:07:35.889Z,380.87943
2023-01-22T20:12:37.518Z,371.77778
2023-01-22T20:17:39.161Z,349.26316
2023-01-22T20:22:40.813Z,0
2023-01-22T20:27:42.507Z,0
2023-01-22T20:32:44.109Z,0
2023-01-22T20:37:45.809Z,0
2023-01-22T20:42:47.528Z,0
2023-01-22T20:47:49.294Z,360.21622
2023-01-22T20:52:50.993Z,0
2023-01-22T20:57:52.703Z,0
2023-01-22T21:02:54.356Z,0
2023-01-22T21:07:55.987Z,0
2023-01-22T21:12:57.649Z,0
2023-01-22T21:17:59.310Z,0
2023-01-22T21:23:01.127Z,0
2023-01-22T21:28:02.807Z,0
2023-01-22T21:33:04.472Z,387.16547
2023-01-22T21:38:06.072Z,0
2023-01-22T21:43:07.776Z,0
2023-01-22T21:48:09.431Z,0
2023-01-22T21:53:11.110Z,298.02299
2023-01-22T21:58:12.782Z,0
2023-01-22T22:03:14.442Z,0
2023-01-22T22:08:16.095Z,300.06936
2023-01-22T22:13:17.738Z,0
2023-01-22T22:18:19.378Z,0
2023-01-22T22:23:21.301Z,319.60976
2023-01-22T22:28:22.952Z,294
2023-01-22T22:33:24.606Z,288.13408
2023-01-22T22:38:26.891Z,292.0226
2023-01-22T22:43:28.619Z,308.49704
2023-01-22T22:48:30.251Z,326.6087
2023-01-22T22:53:32.007Z,292.0226
2023-01-22T22:58:33.625Z,304.23392
2023-01-22T23:03:35.329Z,273.41176
2023-01-22T23:08:37.106Z,280.61202
2023-01-22T23:13:38.822Z,261.52577
2023-01-22T23:18:40.500Z,258.28571
2023-01-22T23:23:42.165Z,298.02299
2023-01-22T23:28:43.808Z,317.33333
2023-01-22T23:33:45.490Z,308.49704
2023-01-22T23:38:47.129Z,271.65957
2023-01-22T23:43:48.810Z,276.97297
2023-01-22T23:48:50.442Z,292.0226
2023-01-22T23:53:52.141Z,261.52577
2023-01-22T23:58:53.852Z,238.73684
